CPY2 weather

Milton (District Hospital) Heliport
Milton, Ontario, Canada

Public forecast

Using degrees Celsius for public forecast. Weather courtesy of forecast.io.

Closest aviation weather report (METAR) to Milton (District Hospital) Heliport

Closest report is Lester B. Pearson International Airport, 15.1 nm (27.9 km) NE. Retrieved 2020/07/04 05:00 UTC (1 hour ago):

CYYZ 040500Z 35009G15KT 15SM SKC 24/17 A2995 RMK SLP138 DENSITY ALT 1700FT

Closest aviation forecast (TAF) to Milton (District Hospital) Heliport

Closest forecast is Lester B. Pearson International Airport, 15.1 nm (27.9 km) NE. Retrieved 2020/07/04 06:42 UTC (0 seconds ago):

TAF CYYZ 040540Z 0406/0512 35012KT P6SM SKC FM041600 04008KT P6SM SKC BECMG 0417/0419 17010KT BECMG 0423/0501 36008KT RMK NXT FCST BY 040900Z